Time;durP1;ratioP1;P1;durP2;ratioP2;P2;SDS_P1;SDS_P2;PMS_P1;PMS_P2;Temp;Humidity;BMP_temperature;BMP_pressure;BME280_temperature;BME280_humidity;BME280_pressure;Samples;Min_cycle;Max_cycle;Signal;HPM_P1;HPM_P2
2024/01/10 00:00:40;;;;;;;8.18;6.00;;;;;;;;;;6135827;23;20050;-89
2024/01/10 00:03:24;;;;;;;8.90;6.10;;;;;;;;;;6136428;23;20020;-88
2024/01/10 00:06:09;;;;;;;8.13;6.40;;;;;;;;;;6135905;23;20071;-89
2024/01/10 00:08:53;;;;;;;7.25;6.55;;;;;;;;;;6133907;23;20347;-89
2024/01/10 00:11:37;;;;;;;9.85;7.15;;;;;;;;;;6137292;23;20070;-89
2024/01/10 00:14:21;;;;;;;14.10;6.85;;;;;;;;;;6137183;23;20018;-90
2024/01/10 00:17:08;;;;;;;15.70;6.90;;;;;;;;;;6136161;23;20024;-90
2024/01/10 00:19:52;;;;;;;10.38;5.60;;;;;;;;;;6135214;23;20021;-90
2024/01/10 00:22:36;;;;;;;6.47;5.82;;;;;;;;;;6135836;23;20092;-90
2024/01/10 00:25:20;;;;;;;8.75;6.30;;;;;;;;;;6136394;23;20029;-89
2024/01/10 00:28:04;;;;;;;6.70;5.78;;;;;;;;;;6138090;23;20024;-89
2024/01/10 00:30:49;;;;;;;9.45;5.50;;;;;;;;;;6136959;23;20017;-90
2024/01/10 00:33:34;;;;;;;8.13;5.95;;;;;;;;;;6137120;23;20017;-89
2024/01/10 00:36:17;;;;;;;9.40;5.40;;;;;;;;;;6136294;23;20024;-89
2024/01/10 00:39:01;;;;;;;6.00;5.50;;;;;;;;;;6137255;23;20028;-90
2024/01/10 00:41:45;;;;;;;14.43;5.95;;;;;;;;;;6158221;23;20025;-89
2024/01/10 00:44:29;;;;;;;6.88;5.43;;;;;;;;;;6135635;23;20368;-91
2024/01/10 00:47:13;;;;;;;9.95;5.72;;;;;;;;;;6136413;23;20028;-89
2024/01/10 00:49:57;;;;;;;6.43;5.60;;;;;;;;;;6136310;23;20387;-90
2024/01/10 00:52:41;;;;;;;9.13;5.78;;;;;;;;;;6135726;23;20060;-90
2024/01/10 00:55:25;;;;;;;5.30;4.95;;;;;;;;;;6135759;23;20085;-89
2024/01/10 00:58:09;;;;;;;5.90;5.30;;;;;;;;;;6136194;23;20024;-89
2024/01/10 01:00:53;;;;;;;6.28;5.68;;;;;;;;;;6135658;23;20021;-89
2024/01/10 01:03:37;;;;;;;11.95;5.72;;;;;;;;;;6136294;23;20036;-89
2024/01/10 01:06:23;;;;;;;9.30;6.07;;;;;;;;;;6136306;23;20024;-89
2024/01/10 01:09:07;;;;;;;7.45;5.80;;;;;;;;;;6135979;23;20020;-89
2024/01/10 01:11:51;;;;;;;6.72;6.00;;;;;;;;;;6136124;23;20020;-89
2024/01/10 01:14:35;;;;;;;14.68;6.60;;;;;;;;;;6135863;23;20021;-89
2024/01/10 01:17:19;;;;;;;6.40;5.90;;;;;;;;;;6135828;23;20024;-90
2024/01/10 01:20:04;;;;;;;6.50;5.93;;;;;;;;;;6135577;23;20023;-90
2024/01/10 01:22:48;;;;;;;10.98;5.90;;;;;;;;;;6134859;23;20071;-89
2024/01/10 01:25:32;;;;;;;10.07;5.63;;;;;;;;;;6135003;23;20509;-89
2024/01/10 01:28:16;;;;;;;11.23;6.55;;;;;;;;;;6134486;23;20024;-89
2024/01/10 01:31:00;;;;;;;11.13;6.45;;;;;;;;;;6134444;23;20060;-89
2024/01/10 01:33:44;;;;;;;8.13;5.80;;;;;;;;;;6135183;23;20047;-89
2024/01/10 01:36:28;;;;;;;8.32;5.72;;;;;;;;;;6134638;23;20020;-89
2024/01/10 01:39:13;;;;;;;9.77;5.43;;;;;;;;;;6137007;23;20029;-89
2024/01/10 01:41:58;;;;;;;8.55;5.82;;;;;;;;;;6136850;23;20044;-89
2024/01/10 01:44:42;;;;;;;6.00;5.50;;;;;;;;;;6137022;23;20025;-89
2024/01/10 01:47:29;;;;;;;6.15;5.30;;;;;;;;;;6136264;23;20024;-89
2024/01/10 01:50:13;;;;;;;8.85;5.90;;;;;;;;;;6136775;23;20021;-89
2024/01/10 01:52:57;;;;;;;14.70;6.40;;;;;;;;;;6136481;23;20450;-88
2024/01/10 01:55:43;;;;;;;6.72;5.80;;;;;;;;;;6135158;23;20458;-89
2024/01/10 01:58:27;;;;;;;7.07;5.60;;;;;;;;;;6134084;23;20029;-89
2024/01/10 02:01:11;;;;;;;15.43;6.53;;;;;;;;;;6133106;23;20079;-88
2024/01/10 02:03:55;;;;;;;8.15;6.03;;;;;;;;;;6132971;23;20087;-89
2024/01/10 02:06:39;;;;;;;6.95;5.50;;;;;;;;;;6133626;23;20020;-89
2024/01/10 02:09:23;;;;;;;6.28;5.35;;;;;;;;;;6134487;23;20016;-91
2024/01/10 02:12:07;;;;;;;11.35;5.90;;;;;;;;;;6134381;23;20151;-89
2024/01/10 02:14:51;;;;;;;9.80;6.05;;;;;;;;;;6134432;23;20021;-90
2024/01/10 02:17:35;;;;;;;7.80;6.40;;;;;;;;;;6134340;23;20024;-88
2024/01/10 02:20:21;;;;;;;7.45;5.43;;;;;;;;;;6134314;23;20092;-91
2024/01/10 02:23:05;;;;;;;9.07;6.13;;;;;;;;;;6133604;23;20099;-90
2024/01/10 02:25:49;;;;;;;8.13;6.25;;;;;;;;;;6134610;23;20447;-90
2024/01/10 02:28:33;;;;;;;9.13;6.10;;;;;;;;;;6133985;23;20190;-89
2024/01/10 02:31:17;;;;;;;6.63;5.68;;;;;;;;;;6133513;23;20135;-90
2024/01/10 02:34:00;;;;;;;6.55;5.90;;;;;;;;;;6134396;23;20017;-90
2024/01/10 02:36:45;;;;;;;7.43;5.53;;;;;;;;;;6134320;23;20027;-89
2024/01/10 02:39:29;;;;;;;9.45;5.95;;;;;;;;;;6134581;23;20024;-90
2024/01/10 02:42:13;;;;;;;13.35;5.18;;;;;;;;;;6133785;23;20028;-90
2024/01/10 02:44:57;;;;;;;6.93;5.05;;;;;;;;;;6134691;23;20021;-89
2024/01/10 02:47:41;;;;;;;8.05;5.55;;;;;;;;;;6135097;23;20023;-90
2024/01/10 02:50:25;;;;;;;7.30;5.60;;;;;;;;;;6135511;23;20021;-89
2024/01/10 02:53:09;;;;;;;11.00;6.20;;;;;;;;;;6134563;23;20048;-90
2024/01/10 02:55:52;;;;;;;6.40;5.80;;;;;;;;;;6134051;23;20080;-90
2024/01/10 02:58:36;;;;;;;7.65;5.75;;;;;;;;;;6135037;23;20399;-89
2024/01/10 03:01:20;;;;;;;8.20;5.72;;;;;;;;;;6135260;23;20101;-90
2024/01/10 03:04:04;;;;;;;7.35;5.72;;;;;;;;;;6135172;23;20016;-89
2024/01/10 03:06:48;;;;;;;8.85;5.65;;;;;;;;;;6134399;23;20048;-89
2024/01/10 03:09:32;;;;;;;6.70;5.30;;;;;;;;;;6137022;23;20332;-89
2024/01/10 03:12:16;;;;;;;6.05;5.45;;;;;;;;;;6135199;23;20101;-89
2024/01/10 03:15:00;;;;;;;8.55;5.80;;;;;;;;;;6135221;23;20060;-89
2024/01/10 03:17:44;;;;;;;11.65;5.38;;;;;;;;;;6135168;23;20393;-91
2024/01/10 03:20:28;;;;;;;9.60;5.93;;;;;;;;;;6136135;23;20340;-89
2024/01/10 03:23:12;;;;;;;10.10;5.85;;;;;;;;;;6134744;23;20075;-90
2024/01/10 03:25:56;;;;;;;7.05;5.90;;;;;;;;;;6134985;23;20048;-89
2024/01/10 03:28:40;;;;;;;13.85;6.30;;;;;;;;;;6137319;23;20020;-90
2024/01/10 03:31:24;;;;;;;8.93;6.22;;;;;;;;;;6136456;23;20504;-89
2024/01/10 03:34:08;;;;;;;10.50;6.72;;;;;;;;;;6136212;23;20464;-89
2024/01/10 03:36:52;;;;;;;12.05;7.28;;;;;;;;;;6137594;23;20024;-90
2024/01/10 03:39:36;;;;;;;8.70;7.10;;;;;;;;;;6136668;23;20020;-89
2024/01/10 03:42:20;;;;;;;7.60;6.90;;;;;;;;;;6136141;23;20070;-90
2024/01/10 03:45:04;;;;;;;13.95;8.60;;;;;;;;;;6136623;23;20024;-90
2024/01/10 03:47:51;;;;;;;11.43;10.38;;;;;;;;;;6136753;23;20025;-89
2024/01/10 03:50:36;;;;;;;11.57;10.43;;;;;;;;;;6137499;23;20043;-89
2024/01/10 03:53:20;;;;;;;14.35;11.85;;;;;;;;;;6137619;23;20067;-89
2024/01/10 03:56:04;;;;;;;16.58;14.90;;;;;;;;;;6137863;23;20016;-90
2024/01/10 03:58:48;;;;;;;15.20;13.90;;;;;;;;;;6137914;23;20032;-90
2024/01/10 04:01:32;;;;;;;15.05;13.75;;;;;;;;;;6141641;23;20519;-90
2024/01/10 04:04:16;;;;;;;16.35;15.00;;;;;;;;;;6138380;23;20021;-90
2024/01/10 04:07:00;;;;;;;16.00;14.40;;;;;;;;;;6137114;23;20462;-90
2024/01/10 04:09:44;;;;;;;17.23;14.93;;;;;;;;;;6136225;23;20033;-90
2024/01/10 04:12:28;;;;;;;16.83;15.13;;;;;;;;;;6135705;23;20048;-89
2024/01/10 04:15:12;;;;;;;19.17;17.25;;;;;;;;;;6134775;23;20079;-89
2024/01/10 04:17:56;;;;;;;20.65;18.55;;;;;;;;;;6136079;23;20024;-89
2024/01/10 04:20:40;;;;;;;26.52;24.20;;;;;;;;;;6136302;23;20505;-90
2024/01/10 04:23:24;;;;;;;25.73;23.73;;;;;;;;;;6136579;23;20044;-89
2024/01/10 04:26:08;;;;;;;30.35;27.55;;;;;;;;;;6135164;23;20063;-89
2024/01/10 04:28:52;;;;;;;58.42;31.52;;;;;;;;;;6135643;23;20059;-89
2024/01/10 04:31:36;;;;;;;75.65;30.55;;;;;;;;;;6135432;23;20017;-90
2024/01/10 04:34:20;;;;;;;33.90;31.10;;;;;;;;;;6134878;23;20064;-90
2024/01/10 04:37:04;;;;;;;310.15;49.05;;;;;;;;;;6135096;23;20060;-89
2024/01/10 04:39:48;;;;;;;206.07;40.95;;;;;;;;;;6133542;23;20024;-89
2024/01/10 04:42:32;;;;;;;346.45;52.60;;;;;;;;;;6132586;23;20467;-88
2024/01/10 04:45:15;;;;;;;36.38;32.67;;;;;;;;;;6130755;23;20521;-89
2024/01/10 04:48:03;;;;;;;147.88;38.30;;;;;;;;;;6130865;23;20029;-88
2024/01/10 04:50:47;;;;;;;36.92;33.75;;;;;;;;;;6131395;23;20055;-89
2024/01/10 04:53:31;;;;;;;36.90;33.90;;;;;;;;;;6130697;23;20498;-89
2024/01/10 04:56:14;;;;;;;37.47;34.47;;;;;;;;;;6130849;23;20092;-88
2024/01/10 04:58:58;;;;;;;40.15;36.28;;;;;;;;;;6130614;23;20075;-89
2024/01/10 05:01:43;;;;;;;36.65;33.85;;;;;;;;;;6130748;23;20028;-88
2024/01/10 05:04:27;;;;;;;37.05;34.45;;;;;;;;;;6130965;23;20067;-87
2024/01/10 05:07:11;;;;;;;35.38;32.88;;;;;;;;;;6130973;23;20028;-89
2024/01/10 05:09:55;;;;;;;37.72;34.97;;;;;;;;;;6153693;23;20144;-88
2024/01/10 05:12:39;;;;;;;36.55;33.95;;;;;;;;;;6152929;23;20012;-89
2024/01/10 05:15:23;;;;;;;38.60;35.40;;;;;;;;;;6130397;23;20020;-87
2024/01/10 05:18:07;;;;;;;38.55;35.40;;;;;;;;;;6152123;23;20040;-90
2024/01/10 05:20:51;;;;;;;35.10;32.42;;;;;;;;;;6130386;23;20044;-89
2024/01/10 05:23:35;;;;;;;36.05;33.38;;;;;;;;;;6130396;23;20036;-90
2024/01/10 05:26:19;;;;;;;37.55;33.95;;;;;;;;;;6130408;23;20020;-88
2024/01/10 05:29:03;;;;;;;36.83;33.92;;;;;;;;;;6130435;23;20292;-90
2024/01/10 05:31:47;;;;;;;38.85;35.65;;;;;;;;;;6129937;23;20020;-91
2024/01/10 05:34:30;;;;;;;40.85;37.58;;;;;;;;;;6130351;23;20054;-89
2024/01/10 05:37:14;;;;;;;40.83;37.75;;;;;;;;;;6130861;23;20040;-89
2024/01/10 05:39:58;;;;;;;44.63;41.50;;;;;;;;;;6129439;23;20083;-88
2024/01/10 05:42:42;;;;;;;40.60;37.47;;;;;;;;;;6129880;23;20029;-89
2024/01/10 05:45:26;;;;;;;39.55;36.42;;;;;;;;;;6129858;23;20023;-90
2024/01/10 05:48:10;;;;;;;42.13;38.15;;;;;;;;;;6129086;23;20048;-89
2024/01/10 05:50:54;;;;;;;39.10;35.85;;;;;;;;;;6129290;23;20020;-89
2024/01/10 05:53:38;;;;;;;37.97;34.65;;;;;;;;;;6129232;23;20079;-90
2024/01/10 05:56:23;;;;;;;40.30;36.95;;;;;;;;;;6129817;23;20052;-90
2024/01/10 05:59:06;;;;;;;41.08;37.20;;;;;;;;;;6129688;23;20071;-88
2024/01/10 06:01:53;;;;;;;37.25;33.85;;;;;;;;;;6129097;23;20027;-89
2024/01/10 06:04:37;;;;;;;35.88;32.75;;;;;;;;;;6128988;23;20067;-89
2024/01/10 06:07:21;;;;;;;36.58;33.10;;;;;;;;;;6151284;23;20040;-89
2024/01/10 06:10:06;;;;;;;41.60;37.50;;;;;;;;;;6128615;23;20020;-89
2024/01/10 06:12:50;;;;;;;38.50;34.10;;;;;;;;;;6149894;23;20020;-88
2024/01/10 06:15:34;;;;;;;41.25;37.33;;;;;;;;;;6128086;23;20017;-89
2024/01/10 06:18:18;;;;;;;44.08;39.70;;;;;;;;;;6128401;23;20025;-90
2024/01/10 06:21:04;;;;;;;41.67;37.70;;;;;;;;;;6128143;23;20058;-90
2024/01/10 06:23:48;;;;;;;40.05;36.13;;;;;;;;;;6127900;23;20056;-89
2024/01/10 06:26:32;;;;;;;38.08;34.63;;;;;;;;;;6128178;23;20075;-88
2024/01/10 06:29:16;;;;;;;42.67;38.78;;;;;;;;;;6149998;23;20032;-89
2024/01/10 06:32:01;;;;;;;42.97;39.38;;;;;;;;;;6127557;23;20024;-88
2024/01/10 06:34:47;;;;;;;44.72;40.58;;;;;;;;;;6127912;23;20071;-89
2024/01/10 06:37:31;;;;;;;44.47;40.13;;;;;;;;;;6128676;23;20033;-90
2024/01/10 06:40:16;;;;;;;44.00;39.78;;;;;;;;;;6149510;23;20048;-89
2024/01/10 06:43:00;;;;;;;43.35;39.17;;;;;;;;;;6128350;23;20542;-90
2024/01/10 06:45:44;;;;;;;43.40;39.42;;;;;;;;;;6129383;23;20020;-88
2024/01/10 06:48:29;;;;;;;39.40;35.78;;;;;;;;;;6150392;23;20024;-88
2024/01/10 06:51:16;;;;;;;41.30;37.28;;;;;;;;;;6178901;23;20040;-90
2024/01/10 06:54:03;;;;;;;43.13;38.85;;;;;;;;;;6129066;23;20017;-89
2024/01/10 06:56:47;;;;;;;63.53;41.30;;;;;;;;;;6128197;23;20021;-90
2024/01/10 06:59:34;;;;;;;47.17;38.35;;;;;;;;;;6129005;23;20455;-90
2024/01/10 07:02:18;;;;;;;543.78;68.75;;;;;;;;;;6150873;23;20471;-88
2024/01/10 07:05:02;;;;;;;250.18;50.72;;;;;;;;;;6128806;23;20025;-89
2024/01/10 07:07:46;;;;;;;614.35;81.18;;;;;;;;;;6150027;23;20348;-90
2024/01/10 07:10:34;;;;;;;55.40;38.33;;;;;;;;;;6127969;23;20360;-89
2024/01/10 07:13:18;;;;;;;55.05;37.90;;;;;;;;;;6172734;23;20094;-90
2024/01/10 07:16:02;;;;;;;371.40;66.97;;;;;;;;;;6127737;23;20017;-88
2024/01/10 07:18:47;;;;;;;106.28;41.15;;;;;;;;;;6127990;23;20048;-89
2024/01/10 07:21:31;;;;;;;73.18;43.38;;;;;;;;;;6128875;23;20041;-89
2024/01/10 07:24:15;;;;;;;48.75;39.03;;;;;;;;;;6128858;23;20455;-88
2024/01/10 07:26:59;;;;;;;48.35;38.63;;;;;;;;;;6128497;23;20067;-88
2024/01/10 07:29:48;;;;;;;99.95;44.60;;;;;;;;;;6131581;23;20020;-88
2024/01/10 07:32:34;;;;;;;109.95;38.92;;;;;;;;;;6128151;23;20020;-90
2024/01/10 07:35:18;;;;;;;177.50;46.13;;;;;;;;;;6128863;23;20052;-88
2024/01/10 07:38:12;;;;;;;108.72;43.83;;;;;;;;;;6123316;23;20024;-89
2024/01/10 07:40:59;;;;;;;47.10;35.35;;;;;;;;;;6129281;23;20024;-90
2024/01/10 07:43:43;;;;;;;44.72;36.25;;;;;;;;;;6150355;23;20026;-90
2024/01/10 07:46:27;;;;;;;47.47;34.85;;;;;;;;;;6151827;23;20515;-89
2024/01/10 07:49:11;;;;;;;35.58;31.73;;;;;;;;;;6154777;23;20036;-89
2024/01/10 07:51:55;;;;;;;34.22;29.58;;;;;;;;;;6152739;23;20016;-90
2024/01/10 07:54:39;;;;;;;85.55;33.50;;;;;;;;;;6151926;23;20073;-89
2024/01/10 07:57:23;;;;;;;42.40;31.95;;;;;;;;;;6155143;23;20067;-90
2024/01/10 08:00:10;;;;;;;64.28;30.85;;;;;;;;;;6156517;23;20040;-90
2024/01/10 08:02:58;;;;;;;63.20;37.42;;;;;;;;;;6132767;23;20025;-89
2024/01/10 08:05:43;;;;;;;93.80;39.63;;;;;;;;;;6152382;23;20047;-90
2024/01/10 08:12:07;;;;;;;42.42;34.58;;;;;;;;;;6161050;23;20139;-90
2024/01/10 08:14:51;;;;;;;40.53;30.42;;;;;;;;;;6141356;23;20329;-90
2024/01/10 08:17:39;;;;;;;38.20;31.70;;;;;;;;;;6141038;23;20019;-89
2024/01/10 08:20:27;;;;;;;38.20;34.13;;;;;;;;;;6169647;23;20406;-89
2024/01/10 08:23:11;;;;;;;38.63;34.47;;;;;;;;;;6141050;23;20024;-89
2024/01/10 08:25:58;;;;;;;37.05;33.05;;;;;;;;;;6155672;23;20047;-89
2024/01/10 08:28:54;;;;;;;35.85;31.75;;;;;;;;;;6143223;23;20076;-89
2024/01/10 08:31:39;;;;;;;44.92;33.88;;;;;;;;;;6141560;23;20048;-89
2024/01/10 08:37:58;;;;;;;;;;;;;;;;;;6155477;23;20083;-88
2024/01/10 08:40:42;;;;;;;39.80;35.55;;;;;;;;;;6129647;23;19915;-86
2024/01/10 08:43:26;;;;;;;38.03;33.92;;;;;;;;;;6129788;23;20067;-87
2024/01/10 08:46:10;;;;;;;41.75;34.28;;;;;;;;;;6155950;23;20071;-89
2024/01/10 08:48:54;;;;;;;45.28;34.83;;;;;;;;;;6160740;23;20063;-90
2024/01/10 08:51:40;;;;;;;46.83;37.42;;;;;;;;;;6137889;23;20062;-89
2024/01/10 08:54:25;;;;;;;52.40;37.80;;;;;;;;;;6177122;23;20463;-90
2024/01/10 08:57:09;;;;;;;43.53;34.22;;;;;;;;;;6136151;23;20021;-89
2024/01/10 08:59:53;;;;;;;48.50;36.15;;;;;;;;;;6136277;23;20020;-89
2024/01/10 09:02:37;;;;;;;49.85;35.85;;;;;;;;;;6138322;23;20024;-89
2024/01/10 09:05:21;;;;;;;51.70;36.03;;;;;;;;;;6178823;23;20102;-90
2024/01/10 09:08:07;;;;;;;56.03;36.53;;;;;;;;;;6136552;23;20486;-89
2024/01/10 09:10:52;;;;;;;59.60;38.80;;;;;;;;;;6136112;23;20078;-89
2024/01/10 09:13:37;;;;;;;124.05;39.40;;;;;;;;;;6135350;23;20020;-89
2024/01/10 09:16:22;;;;;;;133.27;43.75;;;;;;;;;;6135560;23;20110;-89
2024/01/10 09:19:08;;;;;;;147.02;46.47;;;;;;;;;;6135035;23;20071;-90
2024/01/10 09:21:52;;;;;;;121.57;43.00;;;;;;;;;;6134979;23;20020;-90
2024/01/10 09:24:36;;;;;;;66.10;38.03;;;;;;;;;;6135464;23;20025;-90
2024/01/10 09:27:20;;;;;;;62.85;38.42;;;;;;;;;;6177843;23;20016;-89
2024/01/10 09:30:09;;;;;;;64.90;37.72;;;;;;;;;;6135537;23;20115;-89
2024/01/10 09:32:53;;;;;;;169.10;48.42;;;;;;;;;;6135650;23;20352;-89
2024/01/10 09:35:38;;;;;;;74.18;42.60;;;;;;;;;;6137093;23;20063;-90
2024/01/10 09:38:22;;;;;;;73.00;37.75;;;;;;;;;;6177776;23;20530;-90
2024/01/10 09:41:06;;;;;;;68.85;40.55;;;;;;;;;;6136963;23;20028;-90
2024/01/10 09:43:50;;;;;;;94.60;41.28;;;;;;;;;;6136942;23;20061;-90
2024/01/10 09:46:38;;;;;;;67.35;39.15;;;;;;;;;;6136879;23;20024;-90
2024/01/10 09:49:22;;;;;;;38.85;33.28;;;;;;;;;;6176938;23;20017;-89
2024/01/10 09:52:10;;;;;;;41.95;37.42;;;;;;;;;;6136432;23;20021;-90
2024/01/10 09:54:57;;;;;;;50.58;40.50;;;;;;;;;;6136368;23;20019;-90
2024/01/10 09:57:41;;;;;;;41.40;32.65;;;;;;;;;;6136220;23;20048;-90
2024/01/10 10:00:25;;;;;;;43.35;32.70;;;;;;;;;;6138506;23;20082;-89
2024/01/10 10:03:12;;;;;;;42.50;32.50;;;;;;;;;;6136921;23;20021;-89
2024/01/10 10:05:56;;;;;;;38.22;30.98;;;;;;;;;;6136917;23;20021;-90
2024/01/10 10:08:41;;;;;;;38.17;30.90;;;;;;;;;;6136035;23;20105;-90
2024/01/10 10:11:26;;;;;;;31.33;27.90;;;;;;;;;;6175044;23;20336;-90
2024/01/10 10:14:14;;;;;;;34.08;28.75;;;;;;;;;;6135931;23;20047;-89
2024/01/10 10:17:17;;;;;;;34.83;29.17;;;;;;;;;;6136778;23;20025;-89
2024/01/10 10:20:05;;;;;;;36.15;28.80;;;;;;;;;;6136513;23;20071;-89
2024/01/10 10:23:03;;;;;;;31.80;28.25;;;;;;;;;;6135795;23;20067;-90
2024/01/10 10:25:48;;;;;;;30.42;27.23;;;;;;;;;;6135868;23;20395;-90
2024/01/10 10:28:32;;;;;;;35.25;29.30;;;;;;;;;;6136496;23;20025;-90
2024/01/10 10:31:17;;;;;;;34.45;28.40;;;;;;;;;;6182143;23;20510;-91
2024/01/10 10:34:04;;;;;;;29.92;26.70;;;;;;;;;;6136787;23;20016;-89
2024/01/10 10:36:48;;;;;;;29.95;26.75;;;;;;;;;;6135871;23;20075;-89
2024/01/10 10:39:33;;;;;;;33.42;29.83;;;;;;;;;;6135274;23;20032;-89
2024/01/10 10:42:17;;;;;;;29.88;26.75;;;;;;;;;;6136823;23;20147;-90
2024/01/10 10:45:03;;;;;;;33.90;30.38;;;;;;;;;;6136753;23;20025;-90
2024/01/10 10:47:50;;;;;;;30.65;26.27;;;;;;;;;;6136459;23;20020;-90
2024/01/10 10:50:34;;;;;;;30.13;27.02;;;;;;;;;;6136010;23;20017;-90
2024/01/10 10:53:19;;;;;;;27.90;25.20;;;;;;;;;;6135903;23;20059;-90
2024/01/10 10:56:07;;;;;;;26.35;23.90;;;;;;;;;;6137334;23;20021;-90
2024/01/10 10:58:52;;;;;;;26.33;23.70;;;;;;;;;;6136401;23;20470;-90
2024/01/10 11:01:39;;;;;;;73.90;28.02;;;;;;;;;;6142256;23;20020;-91
2024/01/10 11:04:24;;;;;;;269.95;41.90;;;;;;;;;;6176321;23;20020;-89
2024/01/10 11:07:08;;;;;;;34.65;24.85;;;;;;;;;;6137230;23;20039;-89
2024/01/10 11:09:52;;;;;;;214.07;38.72;;;;;;;;;;6139038;23;20036;-90
2024/01/10 11:12:55;;;;;;;79.43;31.25;;;;;;;;;;6143705;23;20013;-89
2024/01/10 11:16:02;;;;;;;29.33;26.33;;;;;;;;;;6141939;23;20070;-89
2024/01/10 11:18:52;;;;;;;37.38;25.85;;;;;;;;;;6138488;23;20021;-91
2024/01/10 11:21:56;;;;;;;27.65;24.98;;;;;;;;;;6137714;23;20043;-89
2024/01/10 11:24:40;;;;;;;26.02;23.83;;;;;;;;;;6137313;23;20459;-89
2024/01/10 11:34:56;;;;;;;264.98;49.42;;;;;;;;;;6158463;23;20012;-90
2024/01/10 11:37:43;;;;;;;37.67;28.15;;;;;;;;;;6136377;23;20083;-89
2024/01/10 11:40:48;;;;;;;29.60;27.00;;;;;;;;;;6173097;23;20043;-89
2024/01/10 11:43:32;;;;;;;31.48;28.35;;;;;;;;;;6137915;23;20052;-89
2024/01/10 11:46:18;;;;;;;33.47;29.65;;;;;;;;;;6136169;23;20024;-90
2024/01/10 11:49:02;;;;;;;28.50;25.67;;;;;;;;;;6137758;23;20447;-89
2024/01/10 11:51:52;;;;;;;30.27;27.20;;;;;;;;;;6136767;23;20466;-90
2024/01/10 11:54:43;;;;;;;33.97;28.45;;;;;;;;;;6137361;23;20012;-90
2024/01/10 11:57:28;;;;;;;62.75;34.90;;;;;;;;;;6137354;23;20020;-90
2024/01/10 12:00:12;;;;;;;152.93;38.90;;;;;;;;;;6187186;23;20025;-89
2024/01/10 12:02:56;;;;;;;79.35;35.80;;;;;;;;;;6136000;23;20024;-89
2024/01/10 12:05:41;;;;;;;58.65;36.63;;;;;;;;;;6136734;23;20024;-89
2024/01/10 12:08:25;;;;;;;32.20;28.80;;;;;;;;;;6136973;23;20141;-90
2024/01/10 12:11:09;;;;;;;102.45;37.40;;;;;;;;;;6137796;23;20512;-89
2024/01/10 12:13:53;;;;;;;41.60;33.28;;;;;;;;;;6136599;23;20017;-90
2024/01/10 12:16:38;;;;;;;41.67;33.28;;;;;;;;;;6136303;23;20055;-90
2024/01/10 12:19:22;;;;;;;36.25;31.75;;;;;;;;;;6179946;23;20412;-89
2024/01/10 12:22:07;;;;;;;78.28;35.85;;;;;;;;;;6139867;23;20020;-89
2024/01/10 12:24:52;;;;;;;76.47;35.38;;;;;;;;;;6139338;23;20029;-90
2024/01/10 12:27:36;;;;;;;38.78;34.17;;;;;;;;;;6139015;23;20021;-89
2024/01/10 12:30:20;;;;;;;40.65;35.28;;;;;;;;;;6181443;23;20075;-90
2024/01/10 12:33:04;;;;;;;39.70;34.67;;;;;;;;;;6137055;23;20070;-89
2024/01/10 12:36:04;;;;;;;36.95;33.05;;;;;;;;;;6137085;23;20467;-89
2024/01/10 12:38:48;;;;;;;41.22;33.33;;;;;;;;;;6136824;23;20078;-90
2024/01/10 12:41:32;;;;;;;38.25;34.13;;;;;;;;;;6136883;23;20068;-89
2024/01/10 12:44:17;;;;;;;34.72;31.42;;;;;;;;;;6182718;23;20040;-90
2024/01/10 12:47:02;;;;;;;35.35;31.77;;;;;;;;;;6136273;23;20019;-90
2024/01/10 12:49:47;;;;;;;34.80;31.30;;;;;;;;;;6135714;23;20021;-90
2024/01/10 12:52:31;;;;;;;32.35;29.23;;;;;;;;;;6136265;23;20525;-89
2024/01/10 12:55:14;;;;;;;37.33;33.65;;;;;;;;;;6196478;22;20065;-89
2024/01/10 12:58:01;;;;;;;41.20;34.00;;;;;;;;;;6146789;23;20024;-89
2024/01/10 13:00:45;;;;;;;37.38;33.53;;;;;;;;;;6138377;23;20089;-89
2024/01/10 13:03:31;;;;;;;34.40;31.17;;;;;;;;;;6142757;23;20101;-90
2024/01/10 13:06:16;;;;;;;34.55;31.50;;;;;;;;;;6189317;23;20067;-90
2024/01/10 13:09:01;;;;;;;34.35;31.02;;;;;;;;;;6139079;23;20079;-89
2024/01/10 13:11:45;;;;;;;34.72;31.67;;;;;;;;;;6138614;23;20390;-89
2024/01/10 13:14:31;;;;;;;34.65;31.45;;;;;;;;;;6135818;23;20048;-90
2024/01/10 13:17:16;;;;;;;44.25;33.08;;;;;;;;;;6137378;23;20074;-90
2024/01/10 13:20:00;;;;;;;276.65;48.45;;;;;;;;;;6138111;23;20021;-88
2024/01/10 13:22:47;;;;;;;33.55;30.02;;;;;;;;;;6141390;23;20074;-90
2024/01/10 13:25:31;;;;;;;36.35;32.78;;;;;;;;;;6139039;23;20028;-89
2024/01/10 13:28:15;;;;;;;35.58;32.35;;;;;;;;;;6137611;23;20024;-90
2024/01/10 13:30:59;;;;;;;32.83;29.58;;;;;;;;;;6137525;23;20055;-89
2024/01/10 13:33:43;;;;;;;33.53;30.02;;;;;;;;;;6135930;23;20017;-90
2024/01/10 13:36:27;;;;;;;37.92;33.00;;;;;;;;;;6135059;23;20020;-91
2024/01/10 13:39:15;;;;;;;35.20;32.03;;;;;;;;;;6136445;23;20028;-90
2024/01/10 13:41:59;;;;;;;37.83;34.97;;;;;;;;;;6135477;23;20016;-88
2024/01/10 13:44:43;;;;;;;37.03;34.17;;;;;;;;;;6135000;23;20043;-89
2024/01/10 13:47:27;;;;;;;38.13;34.90;;;;;;;;;;6129331;23;20068;-85
2024/01/10 13:50:11;;;;;;;37.40;34.08;;;;;;;;;;6128658;23;20024;-87
2024/01/10 13:52:55;;;;;;;37.67;34.15;;;;;;;;;;6150389;23;20336;-88
2024/01/10 13:55:38;;;;;;;38.80;35.63;;;;;;;;;;6128698;23;20016;-86
2024/01/10 13:58:23;;;;;;;40.08;36.45;;;;;;;;;;6128502;23;20131;-86
2024/01/10 14:01:07;;;;;;;40.28;36.08;;;;;;;;;;6128587;23;20021;-87
2024/01/10 14:03:51;;;;;;;41.15;37.60;;;;;;;;;;6128564;23;20076;-86
2024/01/10 14:06:35;;;;;;;47.50;43.22;;;;;;;;;;6128413;23;20024;-88
2024/01/10 14:09:18;;;;;;;46.35;41.45;;;;;;;;;;6129030;23;20017;-87
2024/01/10 14:12:03;;;;;;;40.60;34.63;;;;;;;;;;6150343;23;20063;-88
2024/01/10 14:14:47;;;;;;;41.30;37.42;;;;;;;;;;6127613;23;20063;-87
2024/01/10 14:17:31;;;;;;;43.55;39.45;;;;;;;;;;6127980;23;20024;-87
2024/01/10 14:20:15;;;;;;;39.78;36.17;;;;;;;;;;6128283;23;20024;-88
2024/01/10 14:23:00;;;;;;;42.75;38.58;;;;;;;;;;6150078;23;20028;-87
2024/01/10 14:25:44;;;;;;;38.40;34.13;;;;;;;;;;6127670;23;20486;-87
2024/01/10 14:28:28;;;;;;;37.55;33.92;;;;;;;;;;6127207;23;20566;-87
2024/01/10 14:31:13;;;;;;;38.03;34.80;;;;;;;;;;6177757;23;20024;-87
2024/01/10 14:33:57;;;;;;;38.15;34.70;;;;;;;;;;6127846;23;20020;-88
2024/01/10 14:36:41;;;;;;;38.05;34.25;;;;;;;;;;6127892;23;20040;-88
2024/01/10 14:39:25;;;;;;;39.33;35.58;;;;;;;;;;6128141;23;20507;-88
2024/01/10 14:42:09;;;;;;;38.78;35.22;;;;;;;;;;6127883;23;20071;-86
2024/01/10 14:44:55;;;;;;;43.20;39.45;;;;;;;;;;6149649;23;20056;-88
2024/01/10 14:47:39;;;;;;;41.75;37.85;;;;;;;;;;6149852;23;20086;-87
2024/01/10 14:50:24;;;;;;;41.67;37.88;;;;;;;;;;6168141;23;20082;-87
2024/01/10 14:53:08;;;;;;;40.47;36.63;;;;;;;;;;6127400;23;20033;-89
2024/01/10 14:55:52;;;;;;;42.50;38.42;;;;;;;;;;6128430;23;20017;-88
2024/01/10 14:58:36;;;;;;;38.65;35.35;;;;;;;;;;6128365;23;20064;-87
2024/01/10 15:01:20;;;;;;;38.83;34.95;;;;;;;;;;6171138;23;20017;-88
2024/01/10 15:04:04;;;;;;;39.03;35.22;;;;;;;;;;6128218;23;20052;-86
2024/01/10 15:06:48;;;;;;;41.83;37.72;;;;;;;;;;6128390;23;20351;-87
2024/01/10 15:09:32;;;;;;;42.85;38.55;;;;;;;;;;6128580;23;20019;-89
2024/01/10 15:12:19;;;;;;;38.50;34.70;;;;;;;;;;6174128;23;20674;-90
2024/01/10 15:15:04;;;;;;;37.20;33.40;;;;;;;;;;6128283;23;20396;-87
2024/01/10 15:17:48;;;;;;;34.80;31.70;;;;;;;;;;6128403;23;20060;-85
2024/01/10 15:20:32;;;;;;;33.47;29.92;;;;;;;;;;6128264;23;20024;-86
2024/01/10 15:23:16;;;;;;;33.15;30.15;;;;;;;;;;6128175;23;20024;-87
2024/01/10 15:26:00;;;;;;;51.55;35.10;;;;;;;;;;6149228;23;20044;-87
2024/01/10 15:28:48;;;;;;;36.65;32.95;;;;;;;;;;6149540;23;20063;-86
2024/01/10 15:31:34;;;;;;;69.53;39.40;;;;;;;;;;6149400;23;20021;-88
2024/01/10 15:34:18;;;;;;;38.65;31.92;;;;;;;;;;6171348;23;20021;-86
2024/01/10 15:37:02;;;;;;;37.78;33.85;;;;;;;;;;6127612;23;20024;-87
2024/01/10 15:39:47;;;;;;;50.25;35.65;;;;;;;;;;6128115;23;20037;-86
2024/01/10 15:42:38;;;;;;;51.40;39.25;;;;;;;;;;6127094;23;20024;-88
2024/01/10 15:45:22;;;;;;;31.75;26.88;;;;;;;;;;6128738;23;20024;-87
2024/01/10 15:48:06;;;;;;;30.77;27.48;;;;;;;;;;6152373;23;20063;-87
2024/01/10 15:50:50;;;;;;;28.52;25.77;;;;;;;;;;6152266;23;20102;-87
2024/01/10 15:53:36;;;;;;;27.73;25.08;;;;;;;;;;6129587;23;20063;-86
2024/01/10 15:56:21;;;;;;;28.27;25.38;;;;;;;;;;6172082;23;20012;-87
2024/01/10 15:59:06;;;;;;;27.35;24.85;;;;;;;;;;6129089;23;20026;-89
2024/01/10 16:01:51;;;;;;;27.83;24.90;;;;;;;;;;6129016;23;20094;-88
2024/01/10 16:04:35;;;;;;;30.23;27.20;;;;;;;;;;6129486;23;20048;-86
2024/01/10 16:07:24;;;;;;;29.95;27.05;;;;;;;;;;6172992;23;20122;-87
2024/01/10 16:10:08;;;;;;;31.38;28.08;;;;;;;;;;6150798;23;20102;-89
2024/01/10 16:12:53;;;;;;;31.73;28.35;;;;;;;;;;6151319;23;20056;-85
2024/01/10 16:15:37;;;;;;;35.33;31.80;;;;;;;;;;6129613;23;20016;-86
2024/01/10 16:18:21;;;;;;;32.08;28.80;;;;;;;;;;6170546;23;20478;-87